X  Cerrar Datos meteorológicos de aviación METAR     LEGR F.G.L. Airport Granada-Jaén Airport
Temperatura
26°C Temperatura
8°C Punto de rocío
32% Humedad



Viento
11 KM/H
7 MPH
3 M/S
6 NUDO



180°
S
Condiciones actuales

Claro Claro
Presión 1022.01 (hPa) - 30.18 (inHg)
Visibilidad 6 (milla) - 9.7 (km)
Aeropuerto
Código de aeropuerto LEGR

localidad: F.G.L. Airport Granada-Jaén Airport
Distancia: 138 (km)

Metar:
LEGR 141630Z 18006KT 110V230 CAVOK 26/08 Q1022

Hora: 14-04-2024 18:30 CEST